createdAt,value
2023-02-20T00:01:21.714Z,8.32
2023-02-20T00:03:48.134Z,7.15
2023-02-20T00:06:15.911Z,7.22
2023-02-20T00:08:42.567Z,7.30
2023-02-20T00:11:08.993Z,7.28
2023-02-20T00:13:35.381Z,6.30
2023-02-20T00:16:01.876Z,6.60
2023-02-20T00:18:28.224Z,6.00
2023-02-20T00:20:54.581Z,5.68
2023-02-20T00:23:22.265Z,5.57
2023-02-20T00:25:48.613Z,5.57
2023-02-20T00:28:14.985Z,6.25
2023-02-20T00:30:41.589Z,5.32
2023-02-20T00:33:08.054Z,5.97
2023-02-20T00:35:34.413Z,5.18
2023-02-20T00:38:00.822Z,5.25
2023-02-20T00:40:28.516Z,5.55
2023-02-20T00:42:54.899Z,5.32
2023-02-20T00:45:22.196Z,4.57
2023-02-20T00:47:48.802Z,4.88
2023-02-20T00:50:17.838Z,6.28
2023-02-20T00:52:44.209Z,5.25
2023-02-20T00:55:10.614Z,5.57
2023-02-20T00:57:38.344Z,6.47
2023-02-20T01:00:07.577Z,5.68
2023-02-20T01:02:34.039Z,6.43
2023-02-20T01:05:00.489Z,5.82
2023-02-20T01:07:26.858Z,5.88
2023-02-20T01:09:53.234Z,5.85
2023-02-20T01:12:19.592Z,5.40
2023-02-20T01:14:47.548Z,5.95
2023-02-20T01:17:13.903Z,6.07
2023-02-20T01:19:40.415Z,5.53
2023-02-20T01:22:06.790Z,6.78
2023-02-20T01:24:33.116Z,5.85
2023-02-20T01:26:59.551Z,5.00
2023-02-20T01:29:25.939Z,5.28
2023-02-20T01:31:53.734Z,6.32
2023-02-20T01:34:20.696Z,5.53
2023-02-20T01:36:47.852Z,5.43
2023-02-20T01:39:16.917Z,5.00
2023-02-20T01:41:43.310Z,4.90
2023-02-20T01:44:18.073Z,4.82
2023-02-20T01:46:48.245Z,4.35
2023-02-20T01:49:21.039Z,5.22
2023-02-20T01:51:52.065Z,4.88
2023-02-20T01:54:21.529Z,5.53
2023-02-20T01:56:49.151Z,5.53
2023-02-20T01:59:16.924Z,4.30
2023-02-20T02:01:43.744Z,4.68
2023-02-20T02:04:12.317Z,4.78
2023-02-20T02:06:46.046Z,5.10
2023-02-20T02:11:42.486Z,5.32
2023-02-20T02:14:08.893Z,4.82
2023-02-20T02:16:44.146Z,5.35
2023-02-20T02:19:31.209Z,5.47
2023-02-20T02:22:27.136Z,5.88
2023-02-20T02:25:15.746Z,5.90
2023-02-20T02:28:09.813Z,5.40
2023-02-20T02:30:53.185Z,6.55
2023-02-20T02:33:40.601Z,5.68
2023-02-20T02:36:18.239Z,6.25
2023-02-20T02:38:53.828Z,6.35
2023-02-20T02:41:27.362Z,6.30
2023-02-20T02:44:00.242Z,6.82
2023-02-20T02:46:32.474Z,7.97
2023-02-20T02:49:04.152Z,8.25
2023-02-20T02:51:37.320Z,7.75
2023-02-20T02:54:13.966Z,8.02
2023-02-20T02:56:42.979Z,7.97
2023-02-20T02:59:12.181Z,7.75
2023-02-20T03:01:42.900Z,8.43
2023-02-20T03:04:11.323Z,7.78
2023-02-20T03:06:42.625Z,7.93
2023-02-20T03:09:14.988Z,8.02
2023-02-20T03:11:42.557Z,8.27
2023-02-20T03:14:12.256Z,8.77
2023-02-20T03:16:45.556Z,8.13
2023-02-20T03:19:14.289Z,8.55
2023-02-20T03:21:46.882Z,7.57
2023-02-20T03:24:15.577Z,8.32
2023-02-20T03:26:44.072Z,8.82
2023-02-20T03:29:16.850Z,8.95
2023-02-20T03:31:48.986Z,7.38
2023-02-20T03:34:20.748Z,8.75
2023-02-20T03:36:55.061Z,7.75
2023-02-20T03:39:26.343Z,7.65
2023-02-20T03:41:55.007Z,7.88
2023-02-20T03:44:24.393Z,9.13
2023-02-20T03:46:52.657Z,8.77
2023-02-20T03:49:22.503Z,9.77
2023-02-20T03:51:50.268Z,8.68
2023-02-20T03:54:17.104Z,10.00
2023-02-20T03:56:46.983Z,9.25
2023-02-20T03:59:17.393Z,10.68
2023-02-20T04:01:46.078Z,10.07
2023-02-20T04:04:19.548Z,11.27
2023-02-20T04:06:51.378Z,11.57
2023-02-20T04:09:22.518Z,10.85
2023-02-20T04:11:52.417Z,11.07
2023-02-20T04:14:22.723Z,11.73
2023-02-20T04:16:54.883Z,11.45
2023-02-20T04:19:21.297Z,13.48
2023-02-20T04:21:52.769Z,11.50
2023-02-20T04:24:25.678Z,12.70
2023-02-20T04:26:52.414Z,12.60
2023-02-20T04:29:18.856Z,12.20
2023-02-20T04:31:45.221Z,13.23
2023-02-20T04:34:11.611Z,13.52
2023-02-20T04:36:37.970Z,12.88
2023-02-20T04:39:05.649Z,12.38
2023-02-20T04:41:32.024Z,13.65
2023-02-20T04:43:58.372Z,11.75
2023-02-20T04:46:24.744Z,12.80
2023-02-20T04:48:51.158Z,12.70
2023-02-20T04:51:17.517Z,11.70
2023-02-20T04:53:44.150Z,11.55
2023-02-20T04:56:12.155Z,12.30
2023-02-20T04:58:38.598Z,12.10
2023-02-20T05:01:04.981Z,12.93
2023-02-20T05:03:31.394Z,12.88
2023-02-20T05:05:57.733Z,14.02
2023-02-20T05:08:24.081Z,13.60
2023-02-20T05:10:50.462Z,11.05
2023-02-20T05:13:18.241Z,12.73
2023-02-20T05:15:44.634Z,12.40
2023-02-20T05:18:11.016Z,11.13
2023-02-20T05:20:37.382Z,11.93
2023-02-20T05:23:03.733Z,11.32
2023-02-20T05:25:30.105Z,10.63
2023-02-20T05:27:56.454Z,11.23
2023-02-20T05:30:24.747Z,11.40
2023-02-20T05:32:51.295Z,11.85
2023-02-20T05:35:17.632Z,11.73
2023-02-20T05:37:44.004Z,10.75
2023-02-20T05:40:11.091Z,11.20
2023-02-20T05:42:37.950Z,11.15
2023-02-20T05:45:04.970Z,12.32
2023-02-20T05:47:32.942Z,11.10
2023-02-20T05:49:59.313Z,10.52
2023-02-20T05:52:25.675Z,9.30
2023-02-20T05:54:52.193Z,8.50
2023-02-20T05:57:18.534Z,8.57
2023-02-20T05:59:44.885Z,9.52
2023-02-20T06:02:11.258Z,8.68
2023-02-20T06:04:38.952Z,8.13
2023-02-20T06:07:08.050Z,8.43
2023-02-20T06:09:34.409Z,8.15
2023-02-20T06:12:00.759Z,7.95
2023-02-20T06:14:27.174Z,8.18
2023-02-20T06:16:53.792Z,9.02
2023-02-20T06:19:23.169Z,7.60
2023-02-20T06:21:52.085Z,7.57
2023-02-20T06:24:18.784Z,7.35
2023-02-20T06:26:46.323Z,7.90
2023-02-20T06:29:14.615Z,6.97
2023-02-20T06:31:41.167Z,7.15
2023-02-20T06:34:08.674Z,8.18
2023-02-20T06:36:36.886Z,7.55
2023-02-20T06:39:05.199Z,6.72
2023-02-20T06:41:31.663Z,7.82
2023-02-20T06:43:58.111Z,7.45
2023-02-20T06:46:25.347Z,7.93
2023-02-20T06:48:54.354Z,8.18
2023-02-20T06:51:22.885Z,8.77
2023-02-20T06:53:49.264Z,7.00
2023-02-20T06:56:19.081Z,6.32
2023-02-20T06:58:46.358Z,7.13
2023-02-20T07:01:12.980Z,7.40
2023-02-20T07:03:39.385Z,6.35
2023-02-20T07:06:06.189Z,7.63
2023-02-20T07:08:32.600Z,8.27
2023-02-20T07:10:58.997Z,8.70
2023-02-20T07:13:26.688Z,8.40
2023-02-20T07:15:53.109Z,8.98
2023-02-20T07:18:19.478Z,9.45
2023-02-20T07:20:45.830Z,9.82
2023-02-20T07:23:12.271Z,9.88
2023-02-20T07:25:38.631Z,9.63
2023-02-20T07:28:05.028Z,9.13
2023-02-20T07:30:32.807Z,9.73
2023-02-20T07:32:59.187Z,9.98
2023-02-20T07:35:25.540Z,9.85
2023-02-20T07:37:51.908Z,11.02
2023-02-20T07:40:18.666Z,9.82
2023-02-20T07:42:45.139Z,10.50
2023-02-20T07:45:11.967Z,11.70
2023-02-20T07:47:39.671Z,9.55
2023-02-20T07:50:06.791Z,11.07
2023-02-20T07:52:33.168Z,11.25
2023-02-20T07:54:59.526Z,11.20
2023-02-20T07:57:25.970Z,13.27
2023-02-20T07:59:52.350Z,12.57
2023-02-20T08:02:18.778Z,12.77
2023-02-20T08:04:46.487Z,12.57
2023-02-20T08:07:12.979Z,11.90
2023-02-20T08:09:39.330Z,14.30
2023-02-20T08:12:05.893Z,14.50
2023-02-20T08:14:32.273Z,12.20
2023-02-20T08:16:58.626Z,14.80
2023-02-20T08:19:25.108Z,14.13
2023-02-20T08:21:53.258Z,13.88
2023-02-20T08:24:19.636Z,16.38
2023-02-20T08:26:47.682Z,16.85
2023-02-20T08:29:14.908Z,16.17
2023-02-20T08:31:41.731Z,17.40
2023-02-20T08:34:08.159Z,15.00
2023-02-20T08:36:34.571Z,17.08
2023-02-20T08:39:02.274Z,17.33
2023-02-20T08:41:29.304Z,17.17
2023-02-20T08:43:56.038Z,17.08
2023-02-20T08:46:22.697Z,16.67
2023-02-20T08:48:49.114Z,17.15
2023-02-20T08:51:18.691Z,17.08
2023-02-20T08:53:45.030Z,19.83
2023-02-20T08:56:13.021Z,19.70
2023-02-20T08:58:39.570Z,18.95
2023-02-20T09:01:05.989Z,19.17
2023-02-20T09:03:32.355Z,17.23
2023-02-20T09:05:58.720Z,18.23
2023-02-20T09:08:25.070Z,19.80
2023-02-20T09:10:51.534Z,19.23
2023-02-20T09:13:19.748Z,19.45
2023-02-20T09:15:46.144Z,19.05
2023-02-20T09:18:14.003Z,19.13
2023-02-20T09:20:41.093Z,17.50
2023-02-20T09:23:07.959Z,20.17
2023-02-20T09:25:34.729Z,20.60
2023-02-20T09:28:01.110Z,18.25
2023-02-20T09:30:28.898Z,18.00
2023-02-20T09:32:55.300Z,16.85
2023-02-20T09:35:25.283Z,19.67
2023-02-20T09:37:52.337Z,18.50
2023-02-20T09:40:21.753Z,16.80
2023-02-20T09:43:01.618Z,18.63
2023-02-20T09:45:33.175Z,18.25
2023-02-20T09:48:16.687Z,19.42
2023-02-20T09:50:49.006Z,17.65
2023-02-20T09:53:23.083Z,16.92
2023-02-20T09:55:50.819Z,17.33
2023-02-20T09:58:23.109Z,19.52
2023-02-20T10:00:51.376Z,18.55
2023-02-20T10:03:24.723Z,18.58
2023-02-20T10:05:51.171Z,18.20
2023-02-20T10:08:20.228Z,18.75
2023-02-20T10:10:49.121Z,18.52
2023-02-20T10:13:33.551Z,17.85
2023-02-20T10:16:08.262Z,19.17
2023-02-20T10:18:42.401Z,17.35
2023-02-20T10:21:17.991Z,16.80
2023-02-20T10:24:00.098Z,18.33
2023-02-20T10:26:34.465Z,17.23
2023-02-20T10:29:14.670Z,17.88
2023-02-20T10:31:49.380Z,17.65
2023-02-20T10:34:23.610Z,18.30
2023-02-20T10:36:54.062Z,17.73
2023-02-20T10:39:21.963Z,19.10
2023-02-20T10:41:54.689Z,18.40
2023-02-20T10:44:28.178Z,19.42
2023-02-20T10:47:02.372Z,18.17
2023-02-20T10:49:37.888Z,18.92
2023-02-20T10:52:08.174Z,16.85
2023-02-20T10:54:38.053Z,17.35
2023-02-20T10:57:11.369Z,18.08
2023-02-20T10:59:43.634Z,18.55
2023-02-20T11:02:17.957Z,14.85
2023-02-20T11:04:51.520Z,17.88
2023-02-20T11:07:19.631Z,18.40
2023-02-20T11:09:46.054Z,18.65
2023-02-20T11:12:24.746Z,18.63
2023-02-20T11:14:53.093Z,18.48
2023-02-20T11:17:23.489Z,20.90
2023-02-20T11:19:52.307Z,16.55
2023-02-20T11:22:38.214Z,16.60
2023-02-20T11:25:16.236Z,18.30
2023-02-20T11:27:42.805Z,18.73
2023-02-20T11:30:24.323Z,17.77
2023-02-20T11:33:01.244Z,17.85
2023-02-20T11:35:29.472Z,18.42
2023-02-20T11:38:23.381Z,17.88
2023-02-20T11:41:02.372Z,16.48
2023-02-20T11:43:32.730Z,14.13
2023-02-20T11:46:08.236Z,18.13
2023-02-20T11:48:36.409Z,18.30
2023-02-20T11:51:03.359Z,17.15
2023-02-20T11:53:31.831Z,19.20
2023-02-20T11:56:09.874Z,18.50
2023-02-20T11:58:37.297Z,17.92
2023-02-20T12:01:03.898Z,16.35
2023-02-20T12:03:32.272Z,20.08
2023-02-20T12:06:01.849Z,19.15
2023-02-20T12:08:36.731Z,18.42
2023-02-20T12:11:07.224Z,18.27
2023-02-20T12:13:38.547Z,19.45
2023-02-20T12:16:21.480Z,18.40
2023-02-20T12:18:56.418Z,18.65
2023-02-20T12:21:39.348Z,22.50
2023-02-20T12:24:29.601Z,19.27
2023-02-20T12:26:57.822Z,19.85
2023-02-20T12:29:35.537Z,19.30
2023-02-20T12:32:12.841Z,19.52
2023-02-20T12:34:56.844Z,21.02
2023-02-20T12:37:40.069Z,17.20
2023-02-20T12:40:33.440Z,17.67
2023-02-20T12:43:09.978Z,17.67
2023-02-20T12:45:39.898Z,17.27
2023-02-20T12:48:20.534Z,17.58
2023-02-20T12:50:55.679Z,18.05
2023-02-20T12:53:45.238Z,18.08
2023-02-20T12:56:28.181Z,17.50
2023-02-20T12:59:03.643Z,18.33
2023-02-20T13:01:39.323Z,17.33
2023-02-20T13:04:20.246Z,18.25
2023-02-20T13:06:53.713Z,18.70
2023-02-20T13:09:26.097Z,18.55
2023-02-20T13:11:57.524Z,19.23
2023-02-20T13:14:34.649Z,18.15
2023-02-20T13:17:14.673Z,18.63
2023-02-20T13:19:49.409Z,17.25
2023-02-20T13:22:16.772Z,16.85
2023-02-20T13:24:44.452Z,16.30
2023-02-20T13:27:28.233Z,16.02
2023-02-20T13:29:59.666Z,15.20
2023-02-20T13:32:28.394Z,14.52
2023-02-20T13:34:54.787Z,15.07
2023-02-20T13:37:56.586Z,17.38
2023-02-20T13:40:39.642Z,15.40
2023-02-20T13:43:24.696Z,14.27
2023-02-20T13:46:10.669Z,14.77
2023-02-20T13:48:42.512Z,14.85
2023-02-20T13:51:34.480Z,14.35
2023-02-20T13:54:27.045Z,15.15
2023-02-20T13:56:57.637Z,14.65
2023-02-20T13:59:23.997Z,13.73
2023-02-20T14:02:02.735Z,15.02
2023-02-20T14:04:30.119Z,13.30
2023-02-20T14:06:58.777Z,12.40
2023-02-20T14:09:28.263Z,10.18
2023-02-20T14:12:04.085Z,12.40
2023-02-20T14:14:34.000Z,13.60
2023-02-20T14:17:08.740Z,12.63
2023-02-20T14:19:41.100Z,12.30
2023-02-20T14:22:21.847Z,13.82
2023-02-20T14:25:15.340Z,13.57
2023-02-20T14:27:43.106Z,13.20
2023-02-20T14:30:14.299Z,14.30
2023-02-20T14:32:44.172Z,11.82
2023-02-20T14:35:28.223Z,12.88
2023-02-20T14:40:39.533Z,11.30
2023-02-20T14:43:14.969Z,11.90
2023-02-20T14:45:41.371Z,11.00
2023-02-20T14:48:22.264Z,11.63
2023-02-20T14:50:48.703Z,10.85
2023-02-20T14:53:18.500Z,11.65
2023-02-20T14:55:45.515Z,11.77
2023-02-20T14:58:15.079Z,10.73
2023-02-20T15:00:43.945Z,10.35
2023-02-20T15:03:29.817Z,8.98
2023-02-20T15:06:00.959Z,10.90
2023-02-20T15:08:31.377Z,11.63
2023-02-20T15:11:05.459Z,11.55
2023-02-20T15:13:38.323Z,12.10
2023-02-20T15:16:06.907Z,11.77
2023-02-20T15:18:35.009Z,11.43
2023-02-20T15:21:02.219Z,11.85
2023-02-20T15:23:31.748Z,11.23
2023-02-20T15:25:58.548Z,10.93
2023-02-20T15:28:28.187Z,11.10
2023-02-20T15:31:05.960Z,12.40
2023-02-20T15:33:34.597Z,11.10
2023-02-20T15:36:01.212Z,12.88
2023-02-20T15:38:30.058Z,12.07
2023-02-20T15:40:57.508Z,11.30
2023-02-20T15:43:43.041Z,11.35
2023-02-20T15:46:12.404Z,12.65
2023-02-20T15:48:39.145Z,11.82
2023-02-20T15:51:06.154Z,10.70
2023-02-20T15:53:33.317Z,11.60
2023-02-20T15:56:01.321Z,10.73
2023-02-20T15:58:34.227Z,11.82
2023-02-20T16:01:01.746Z,10.50
2023-02-20T16:03:33.915Z,12.02
2023-02-20T16:06:02.909Z,11.52
2023-02-20T16:08:29.301Z,11.23
2023-02-20T16:10:56.405Z,10.57
2023-02-20T16:13:27.682Z,10.90
2023-02-20T16:15:54.228Z,9.55
2023-02-20T16:18:22.619Z,9.80
2023-02-20T16:20:52.021Z,11.10
2023-02-20T16:23:18.851Z,10.27
2023-02-20T16:25:45.478Z,9.93
2023-02-20T16:28:12.378Z,9.82
2023-02-20T16:30:40.854Z,9.13
2023-02-20T16:33:13.629Z,9.15
2023-02-20T16:35:40.055Z,10.13
2023-02-20T16:38:07.802Z,9.02
2023-02-20T16:40:34.441Z,8.73
2023-02-20T16:43:02.471Z,9.88
2023-02-20T16:45:28.849Z,10.48
2023-02-20T16:47:56.243Z,8.27
2023-02-20T16:50:24.546Z,8.00
2023-02-20T16:52:52.274Z,7.55
2023-02-20T16:55:21.823Z,8.25
2023-02-20T16:57:48.530Z,9.98
2023-02-20T17:00:16.603Z,10.07
2023-02-20T17:02:43.668Z,9.45
2023-02-20T17:05:10.381Z,8.63
2023-02-20T17:07:36.827Z,8.63
2023-02-20T17:10:03.448Z,9.77
2023-02-20T17:12:31.143Z,8.70
2023-02-20T17:14:57.535Z,8.43
2023-02-20T17:17:24.061Z,9.77
2023-02-20T17:19:50.574Z,7.88
2023-02-20T17:22:17.140Z,8.55
2023-02-20T17:24:43.723Z,9.15
2023-02-20T17:27:11.799Z,8.85
2023-02-20T17:29:41.888Z,9.63
2023-02-20T17:32:08.279Z,9.75
2023-02-20T17:34:34.665Z,8.40
2023-02-20T17:37:01.554Z,7.97
2023-02-20T17:39:28.159Z,7.68
2023-02-20T17:41:55.856Z,8.10
2023-02-20T17:44:24.369Z,8.35
2023-02-20T17:46:53.516Z,7.50
2023-02-20T17:49:20.607Z,7.43
2023-02-20T17:51:49.769Z,7.22
2023-02-20T17:54:16.232Z,8.00
2023-02-20T17:56:43.933Z,8.07
2023-02-20T17:59:10.865Z,8.05
2023-02-20T18:01:37.272Z,7.88
2023-02-20T18:04:05.766Z,7.97
2023-02-20T18:06:33.304Z,7.72
2023-02-20T18:09:00.554Z,8.15
2023-02-20T18:11:27.782Z,7.38
2023-02-20T18:13:55.021Z,7.38
2023-02-20T18:16:21.488Z,7.70
2023-02-20T18:18:47.867Z,7.85
2023-02-20T18:21:20.557Z,7.65
2023-02-20T18:23:46.971Z,8.07
2023-02-20T18:26:14.371Z,6.95
2023-02-20T18:28:40.897Z,7.55
2023-02-20T18:31:08.241Z,8.13
2023-02-20T18:33:34.757Z,7.82
2023-02-20T18:36:07.932Z,10.07
2023-02-20T18:38:37.045Z,9.30
2023-02-20T18:41:03.848Z,8.70
2023-02-20T18:43:30.309Z,9.02
2023-02-20T18:45:56.910Z,9.85
2023-02-20T18:48:23.298Z,8.95
2023-02-20T18:50:49.673Z,8.93
2023-02-20T18:53:16.215Z,8.40
2023-02-20T18:55:43.903Z,9.85
2023-02-20T18:58:10.339Z,7.88
2023-02-20T19:00:36.709Z,9.25
2023-02-20T19:03:03.270Z,8.93
2023-02-20T19:05:29.631Z,10.00
2023-02-20T19:07:56.055Z,10.40
2023-02-20T19:10:25.137Z,9.57
2023-02-20T19:12:53.913Z,9.73
2023-02-20T19:15:22.106Z,10.18
2023-02-20T19:17:49.103Z,10.55
2023-02-20T19:20:18.629Z,10.90
2023-02-20T19:22:45.170Z,11.23
2023-02-20T19:25:12.018Z,12.57
2023-02-20T19:27:38.404Z,12.02
2023-02-20T19:30:07.845Z,12.02
2023-02-20T19:32:34.421Z,12.07
2023-02-20T19:35:00.827Z,12.15
2023-02-20T19:37:27.247Z,11.30
2023-02-20T19:39:53.611Z,12.07
2023-02-20T19:42:19.970Z,13.40
2023-02-20T19:44:46.373Z,15.00
2023-02-20T19:47:14.071Z,13.75
2023-02-20T19:49:44.488Z,13.82
2023-02-20T19:52:10.859Z,13.20
2023-02-20T19:54:37.250Z,13.75
2023-02-20T19:57:03.783Z,13.60
2023-02-20T19:59:30.930Z,14.73
2023-02-20T20:01:58.600Z,12.93
2023-02-20T20:04:28.082Z,13.02
2023-02-20T20:06:54.950Z,14.35
2023-02-20T20:09:35.525Z,13.65
2023-02-20T20:12:03.412Z,12.95
2023-02-20T20:14:29.769Z,13.00
2023-02-20T20:16:56.345Z,13.27
2023-02-20T20:19:23.020Z,14.35
2023-02-20T20:21:50.744Z,13.60
2023-02-20T20:24:17.584Z,13.02
2023-02-20T20:26:44.238Z,14.02
2023-02-20T20:29:10.622Z,14.70
2023-02-20T20:31:39.426Z,14.27
2023-02-20T20:34:06.396Z,14.93
2023-02-20T20:36:33.232Z,14.10
2023-02-20T20:39:01.178Z,14.20
2023-02-20T20:41:30.471Z,15.52
2023-02-20T20:43:59.699Z,16.52
2023-02-20T20:46:26.084Z,17.17
2023-02-20T20:48:52.470Z,15.80
2023-02-20T20:51:18.834Z,17.17
2023-02-20T20:53:45.523Z,16.33
2023-02-20T20:56:13.276Z,16.48
2023-02-20T20:58:39.646Z,19.50
2023-02-20T21:01:06.267Z,17.42
2023-02-20T21:03:33.094Z,18.58
2023-02-20T21:05:59.853Z,18.17
2023-02-20T21:08:26.327Z,20.80
2023-02-20T21:10:52.862Z,20.15
2023-02-20T21:13:20.559Z,19.52
2023-02-20T21:15:46.956Z,20.35
2023-02-20T21:18:13.360Z,21.42
2023-02-20T21:20:39.735Z,20.92
2023-02-20T21:23:06.107Z,21.10
2023-02-20T21:25:32.474Z,21.23
2023-02-20T21:27:58.850Z,21.33
2023-02-20T21:30:27.365Z,21.65
2023-02-20T21:32:54.209Z,22.52
2023-02-20T21:35:21.909Z,21.35
2023-02-20T21:37:48.364Z,23.20
2023-02-20T21:40:15.458Z,22.98
2023-02-20T21:42:41.821Z,23.83
2023-02-20T21:45:09.055Z,21.48
2023-02-20T21:47:36.989Z,22.67
2023-02-20T21:50:05.391Z,25.10
2023-02-20T21:52:31.791Z,24.60
2023-02-20T21:54:58.318Z,26.35
2023-02-20T21:57:24.885Z,25.30
2023-02-20T21:59:51.264Z,25.35
2023-02-20T22:02:19.300Z,19.85
2023-02-20T22:04:47.141Z,25.10
2023-02-20T22:07:14.258Z,24.27
2023-02-20T22:09:40.684Z,23.10
2023-02-20T22:12:07.147Z,26.48
2023-02-20T22:14:33.607Z,27.42
2023-02-20T22:17:00.010Z,25.02
2023-02-20T22:19:26.386Z,24.90
2023-02-20T22:21:54.061Z,25.48
2023-02-20T22:24:30.485Z,24.48
2023-02-20T22:27:03.978Z,24.33
2023-02-20T22:29:30.682Z,25.38
2023-02-20T22:31:57.219Z,22.23
2023-02-20T22:34:23.632Z,27.00
2023-02-20T22:36:49.986Z,26.52
2023-02-20T22:39:18.630Z,26.48
2023-02-20T22:41:45.059Z,29.55
2023-02-20T22:44:11.441Z,24.58
2023-02-20T22:46:37.847Z,24.13
2023-02-20T22:49:04.269Z,25.48
2023-02-20T22:51:32.530Z,25.17
2023-02-20T22:54:00.082Z,23.88
2023-02-20T22:56:27.775Z,24.25
2023-02-20T22:58:54.185Z,26.98
2023-02-20T23:01:20.570Z,24.67
2023-02-20T23:03:46.925Z,24.55
2023-02-20T23:06:19.812Z,23.02
2023-02-20T23:08:47.474Z,22.20
2023-02-20T23:11:14.047Z,23.20
2023-02-20T23:13:41.940Z,22.33
2023-02-20T23:16:08.394Z,22.60
2023-02-20T23:18:34.798Z,21.67
2023-02-20T23:21:01.198Z,21.98
2023-02-20T23:23:27.596Z,24.42
2023-02-20T23:25:54.312Z,22.75
2023-02-20T23:28:29.034Z,23.42
2023-02-20T23:31:04.395Z,21.48
2023-02-20T23:33:30.826Z,24.63
2023-02-20T23:35:57.217Z,22.30
2023-02-20T23:38:23.606Z,22.30
2023-02-20T23:40:50.023Z,19.70
2023-02-20T23:43:16.363Z,23.30
2023-02-20T23:45:43.013Z,21.10
2023-02-20T23:48:11.460Z,22.65
2023-02-20T23:50:37.876Z,22.92
2023-02-20T23:53:04.238Z,23.98
2023-02-20T23:55:30.714Z,22.67
2023-02-20T23:57:57.088Z,24.20
